sensor_id;sensor_type;location;lat;lon;timestamp;temperature;humidity
8565;DHT22;4320;51.498;6.556;2022-08-25T00:00:36;26.20;1.00
8565;DHT22;4320;51.498;6.556;2022-08-25T00:03:04;26.20;1.00
8565;DHT22;4320;51.498;6.556;2022-08-25T00:05:30;26.10;1.00
8565;DHT22;4320;51.498;6.556;2022-08-25T00:07:56;26.10;1.00
8565;DHT22;4320;51.498;6.556;2022-08-25T00:10:22;26.10;1.00
8565;DHT22;4320;51.498;6.556;2022-08-25T00:12:48;26.10;1.00
8565;DHT22;4320;51.498;6.556;2022-08-25T00:15:13;26.10;1.00
8565;DHT22;4320;51.498;6.556;2022-08-25T00:17:39;26.00;1.00
8565;DHT22;4320;51.498;6.556;2022-08-25T00:20:05;26.00;1.00
8565;DHT22;4320;51.498;6.556;2022-08-25T00:22:33;26.00;1.00
8565;DHT22;4320;51.498;6.556;2022-08-25T00:24:59;26.00;1.00
8565;DHT22;4320;51.498;6.556;2022-08-25T00:27:25;25.90;1.00
8565;DHT22;4320;51.498;6.556;2022-08-25T00:29:50;25.90;1.00
8565;DHT22;4320;51.498;6.556;2022-08-25T00:32:16;25.90;1.00
8565;DHT22;4320;51.498;6.556;2022-08-25T00:34:42;25.90;1.00
8565;DHT22;4320;51.498;6.556;2022-08-25T00:37:09;25.80;1.00
8565;DHT22;4320;51.498;6.556;2022-08-25T00:39:36;25.80;1.00
8565;DHT22;4320;51.498;6.556;2022-08-25T00:42:02;25.70;1.00
8565;DHT22;4320;51.498;6.556;2022-08-25T00:44:31;25.70;1.00
8565;DHT22;4320;51.498;6.556;2022-08-25T00:46:59;25.60;1.00
8565;DHT22;4320;51.498;6.556;2022-08-25T00:52:03;25.50;1.00
8565;DHT22;4320;51.498;6.556;2022-08-25T00:54:34;25.40;1.00
8565;DHT22;4320;51.498;6.556;2022-08-25T00:57:04;25.40;1.00
8565;DHT22;4320;51.498;6.556;2022-08-25T00:59:30;25.30;1.00
8565;DHT22;4320;51.498;6.556;2022-08-25T01:01:57;25.20;1.00
8565;DHT22;4320;51.498;6.556;2022-08-25T01:04:24;25.20;1.00
8565;DHT22;4320;51.498;6.556;2022-08-25T01:06:51;25.10;1.00
8565;DHT22;4320;51.498;6.556;2022-08-25T01:09:17;25.00;1.00
8565;DHT22;4320;51.498;6.556;2022-08-25T01:11:44;24.90;1.00
8565;DHT22;4320;51.498;6.556;2022-08-25T01:14:13;24.80;1.00
8565;DHT22;4320;51.498;6.556;2022-08-25T01:16:41;24.80;1.00
8565;DHT22;4320;51.498;6.556;2022-08-25T01:19:09;24.70;1.00
8565;DHT22;4320;51.498;6.556;2022-08-25T01:21:44;24.70;1.00
8565;DHT22;4320;51.498;6.556;2022-08-25T01:24:15;24.70;1.00
8565;DHT22;4320;51.498;6.556;2022-08-25T01:26:43;24.60;1.00
8565;DHT22;4320;51.498;6.556;2022-08-25T01:29:09;24.60;1.00
8565;DHT22;4320;51.498;6.556;2022-08-25T01:31:55;24.50;1.00
8565;DHT22;4320;51.498;6.556;2022-08-25T01:34:23;24.50;1.00
8565;DHT22;4320;51.498;6.556;2022-08-25T01:36:50;24.50;1.00
8565;DHT22;4320;51.498;6.556;2022-08-25T01:39:15;24.50;1.00
8565;DHT22;4320;51.498;6.556;2022-08-25T01:41:53;24.50;1.00
8565;DHT22;4320;51.498;6.556;2022-08-25T01:44:19;24.40;1.00
8565;DHT22;4320;51.498;6.556;2022-08-25T01:46:45;24.40;1.00
8565;DHT22;4320;51.498;6.556;2022-08-25T01:49:10;24.40;1.00
8565;DHT22;4320;51.498;6.556;2022-08-25T01:51:46;24.40;1.00
8565;DHT22;4320;51.498;6.556;2022-08-25T01:54:12;24.40;1.00
8565;DHT22;4320;51.498;6.556;2022-08-25T01:56:38;24.40;1.00
8565;DHT22;4320;51.498;6.556;2022-08-25T01:59:03;24.30;1.00
8565;DHT22;4320;51.498;6.556;2022-08-25T02:01:29;24.30;1.00
8565;DHT22;4320;51.498;6.556;2022-08-25T02:03:56;24.30;1.00
8565;DHT22;4320;51.498;6.556;2022-08-25T02:06:28;24.30;1.00
8565;DHT22;4320;51.498;6.556;2022-08-25T02:08:56;24.40;1.00
8565;DHT22;4320;51.498;6.556;2022-08-25T02:11:23;24.40;1.00
8565;DHT22;4320;51.498;6.556;2022-08-25T02:13:50;24.40;1.00
8565;DHT22;4320;51.498;6.556;2022-08-25T02:16:23;24.30;1.00
8565;DHT22;4320;51.498;6.556;2022-08-25T02:18:50;24.30;1.00
8565;DHT22;4320;51.498;6.556;2022-08-25T02:21:16;24.20;1.00
8565;DHT22;4320;51.498;6.556;2022-08-25T02:23:42;24.20;1.00
8565;DHT22;4320;51.498;6.556;2022-08-25T02:26:08;24.30;1.00
8565;DHT22;4320;51.498;6.556;2022-08-25T02:28:35;24.30;1.00
8565;DHT22;4320;51.498;6.556;2022-08-25T02:31:03;24.30;1.00
8565;DHT22;4320;51.498;6.556;2022-08-25T02:33:29;24.20;1.00
8565;DHT22;4320;51.498;6.556;2022-08-25T02:36:02;24.20;1.00
8565;DHT22;4320;51.498;6.556;2022-08-25T02:38:29;24.10;1.00
8565;DHT22;4320;51.498;6.556;2022-08-25T02:40:56;24.10;1.00
8565;DHT22;4320;51.498;6.556;2022-08-25T02:43:23;24.20;1.00
8565;DHT22;4320;51.498;6.556;2022-08-25T02:45:51;24.20;1.00
8565;DHT22;4320;51.498;6.556;2022-08-25T02:48:17;24.20;1.00
8565;DHT22;4320;51.498;6.556;2022-08-25T02:50:48;24.20;1.00
8565;DHT22;4320;51.498;6.556;2022-08-25T02:53:16;24.20;1.00
8565;DHT22;4320;51.498;6.556;2022-08-25T02:55:41;24.20;1.00
8565;DHT22;4320;51.498;6.556;2022-08-25T02:58:07;24.10;1.00
8565;DHT22;4320;51.498;6.556;2022-08-25T03:00:34;24.00;1.00
8565;DHT22;4320;51.498;6.556;2022-08-25T03:02:59;24.00;1.00
8565;DHT22;4320;51.498;6.556;2022-08-25T03:05:25;23.90;1.00
8565;DHT22;4320;51.498;6.556;2022-08-25T03:07:51;23.90;1.00
8565;DHT22;4320;51.498;6.556;2022-08-25T03:10:17;23.80;1.00
8565;DHT22;4320;51.498;6.556;2022-08-25T03:12:44;23.80;1.00
8565;DHT22;4320;51.498;6.556;2022-08-25T03:15:13;23.80;1.00
8565;DHT22;4320;51.498;6.556;2022-08-25T03:17:41;23.80;1.00
8565;DHT22;4320;51.498;6.556;2022-08-25T03:20:08;23.80;1.00
8565;DHT22;4320;51.498;6.556;2022-08-25T03:22:34;23.80;1.00
8565;DHT22;4320;51.498;6.556;2022-08-25T03:25:00;23.80;1.00
8565;DHT22;4320;51.498;6.556;2022-08-25T03:27:44;23.70;1.00
8565;DHT22;4320;51.498;6.556;2022-08-25T03:30:11;23.80;1.00
8565;DHT22;4320;51.498;6.556;2022-08-25T03:32:37;23.70;1.00
8565;DHT22;4320;51.498;6.556;2022-08-25T03:35:04;23.70;1.00
8565;DHT22;4320;51.498;6.556;2022-08-25T03:37:30;23.60;1.00
8565;DHT22;4320;51.498;6.556;2022-08-25T03:39:55;23.60;1.00
8565;DHT22;4320;51.498;6.556;2022-08-25T03:42:21;23.50;1.00
8565;DHT22;4320;51.498;6.556;2022-08-25T03:44:47;23.50;1.00
8565;DHT22;4320;51.498;6.556;2022-08-25T03:47:13;23.50;1.00
8565;DHT22;4320;51.498;6.556;2022-08-25T03:49:39;23.40;1.00
8565;DHT22;4320;51.498;6.556;2022-08-25T03:52:04;23.40;1.00
8565;DHT22;4320;51.498;6.556;2022-08-25T03:54:30;23.40;1.00
8565;DHT22;4320;51.498;6.556;2022-08-25T03:56:56;23.30;1.00
8565;DHT22;4320;51.498;6.556;2022-08-25T03:59:21;23.30;1.00
8565;DHT22;4320;51.498;6.556;2022-08-25T04:01:47;23.30;1.00
8565;DHT22;4320;51.498;6.556;2022-08-25T04:04:14;23.30;1.00
8565;DHT22;4320;51.498;6.556;2022-08-25T04:06:41;23.20;1.00
8565;DHT22;4320;51.498;6.556;2022-08-25T04:09:08;23.20;1.00
8565;DHT22;4320;51.498;6.556;2022-08-25T04:11:35;23.30;1.00
8565;DHT22;4320;51.498;6.556;2022-08-25T04:14:01;23.20;1.00
8565;DHT22;4320;51.498;6.556;2022-08-25T04:16:29;23.20;1.00
8565;DHT22;4320;51.498;6.556;2022-08-25T04:18:57;23.20;1.00
8565;DHT22;4320;51.498;6.556;2022-08-25T04:21:24;23.20;1.00
8565;DHT22;4320;51.498;6.556;2022-08-25T04:23:51;23.20;1.00
8565;DHT22;4320;51.498;6.556;2022-08-25T04:26:21;23.20;1.00
8565;DHT22;4320;51.498;6.556;2022-08-25T04:28:48;23.20;1.00
8565;DHT22;4320;51.498;6.556;2022-08-25T04:31:15;23.20;1.00
8565;DHT22;4320;51.498;6.556;2022-08-25T04:33:41;23.20;1.00
8565;DHT22;4320;51.498;6.556;2022-08-25T04:36:09;23.10;1.00
8565;DHT22;4320;51.498;6.556;2022-08-25T04:38:39;23.10;1.00
8565;DHT22;4320;51.498;6.556;2022-08-25T04:41:06;23.10;1.00
8565;DHT22;4320;51.498;6.556;2022-08-25T04:43:34;23.10;1.00
8565;DHT22;4320;51.498;6.556;2022-08-25T04:46:11;23.10;1.00
8565;DHT22;4320;51.498;6.556;2022-08-25T04:48:37;23.10;1.00
8565;DHT22;4320;51.498;6.556;2022-08-25T04:51:09;23.10;1.00
8565;DHT22;4320;51.498;6.556;2022-08-25T04:53:35;23.00;1.00
8565;DHT22;4320;51.498;6.556;2022-08-25T04:56:05;23.00;1.00
8565;DHT22;4320;51.498;6.556;2022-08-25T04:58:31;23.00;1.00
8565;DHT22;4320;51.498;6.556;2022-08-25T05:01:11;23.00;1.00
8565;DHT22;4320;51.498;6.556;2022-08-25T05:03:37;23.10;1.00
8565;DHT22;4320;51.498;6.556;2022-08-25T05:06:04;23.10;1.00
8565;DHT22;4320;51.498;6.556;2022-08-25T05:08:30;23.20;1.00
8565;DHT22;4320;51.498;6.556;2022-08-25T05:10:56;23.20;1.00
8565;DHT22;4320;51.498;6.556;2022-08-25T05:13:23;23.20;1.00
8565;DHT22;4320;51.498;6.556;2022-08-25T05:15:58;23.20;1.00
8565;DHT22;4320;51.498;6.556;2022-08-25T05:18:26;23.20;1.00
8565;DHT22;4320;51.498;6.556;2022-08-25T05:20:53;23.20;1.00
8565;DHT22;4320;51.498;6.556;2022-08-25T05:23:21;23.20;1.00
8565;DHT22;4320;51.498;6.556;2022-08-25T05:25:47;23.20;1.00
8565;DHT22;4320;51.498;6.556;2022-08-25T05:28:14;23.20;1.00
8565;DHT22;4320;51.498;6.556;2022-08-25T05:30:41;23.20;1.00
8565;DHT22;4320;51.498;6.556;2022-08-25T05:33:08;23.20;1.00
8565;DHT22;4320;51.498;6.556;2022-08-25T05:35:35;23.20;1.00
8565;DHT22;4320;51.498;6.556;2022-08-25T05:38:01;23.20;1.00
8565;DHT22;4320;51.498;6.556;2022-08-25T05:40:28;23.30;1.00
8565;DHT22;4320;51.498;6.556;2022-08-25T05:42:54;23.30;1.00
8565;DHT22;4320;51.498;6.556;2022-08-25T05:45:20;23.40;1.00
8565;DHT22;4320;51.498;6.556;2022-08-25T05:47:46;23.40;1.00
8565;DHT22;4320;51.498;6.556;2022-08-25T05:50:11;23.50;1.00
8565;DHT22;4320;51.498;6.556;2022-08-25T05:52:37;23.50;1.00
8565;DHT22;4320;51.498;6.556;2022-08-25T05:55:04;23.60;1.00
8565;DHT22;4320;51.498;6.556;2022-08-25T05:57:31;23.60;1.00
8565;DHT22;4320;51.498;6.556;2022-08-25T05:59:57;23.70;1.00
8565;DHT22;4320;51.498;6.556;2022-08-25T06:02:23;23.70;1.00
8565;DHT22;4320;51.498;6.556;2022-08-25T06:05:09;23.70;1.00
8565;DHT22;4320;51.498;6.556;2022-08-25T06:07:35;23.80;1.00
8565;DHT22;4320;51.498;6.556;2022-08-25T06:10:05;24.20;1.00
8565;DHT22;4320;51.498;6.556;2022-08-25T06:12:32;24.60;1.00
8565;DHT22;4320;51.498;6.556;2022-08-25T06:15:00;25.20;1.00
8565;DHT22;4320;51.498;6.556;2022-08-25T06:17:26;25.70;1.00
8565;DHT22;4320;51.498;6.556;2022-08-25T06:19:52;26.30;1.00
8565;DHT22;4320;51.498;6.556;2022-08-25T06:22:19;27.00;1.00
8565;DHT22;4320;51.498;6.556;2022-08-25T06:24:45;27.70;1.00
8565;DHT22;4320;51.498;6.556;2022-08-25T06:27:11;28.20;1.00
8565;DHT22;4320;51.498;6.556;2022-08-25T06:29:37;28.40;1.00
8565;DHT22;4320;51.498;6.556;2022-08-25T06:32:03;28.30;1.00
8565;DHT22;4320;51.498;6.556;2022-08-25T06:34:28;27.80;1.00
8565;DHT22;4320;51.498;6.556;2022-08-25T06:36:54;27.50;1.00
8565;DHT22;4320;51.498;6.556;2022-08-25T06:39:21;27.30;1.00
8565;DHT22;4320;51.498;6.556;2022-08-25T06:41:55;27.10;1.00
8565;DHT22;4320;51.498;6.556;2022-08-25T06:44:22;27.00;1.00
8565;DHT22;4320;51.498;6.556;2022-08-25T06:46:48;26.80;1.00
8565;DHT22;4320;51.498;6.556;2022-08-25T06:49:14;27.10;1.00
8565;DHT22;4320;51.498;6.556;2022-08-25T06:51:40;27.60;1.00
8565;DHT22;4320;51.498;6.556;2022-08-25T06:54:07;28.20;1.00
8565;DHT22;4320;51.498;6.556;2022-08-25T06:56:39;28.40;1.00
8565;DHT22;4320;51.498;6.556;2022-08-25T06:59:05;29.20;1.00
8565;DHT22;4320;51.498;6.556;2022-08-25T07:01:31;29.80;1.00
8565;DHT22;4320;51.498;6.556;2022-08-25T07:03:59;29.50;1.00
8565;DHT22;4320;51.498;6.556;2022-08-25T07:06:27;29.20;1.00
8565;DHT22;4320;51.498;6.556;2022-08-25T07:08:53;28.90;1.00
8565;DHT22;4320;51.498;6.556;2022-08-25T07:11:19;28.60;1.00
8565;DHT22;4320;51.498;6.556;2022-08-25T07:13:46;28.30;1.00
8565;DHT22;4320;51.498;6.556;2022-08-25T07:16:13;28.10;1.00
8565;DHT22;4320;51.498;6.556;2022-08-25T07:18:42;28.00;1.00
8565;DHT22;4320;51.498;6.556;2022-08-25T07:21:09;27.90;1.00
8565;DHT22;4320;51.498;6.556;2022-08-25T07:23:35;27.80;1.00
8565;DHT22;4320;51.498;6.556;2022-08-25T07:28:33;27.70;1.00
8565;DHT22;4320;51.498;6.556;2022-08-25T07:30:59;27.80;1.00
8565;DHT22;4320;51.498;6.556;2022-08-25T07:33:26;27.70;1.00
8565;DHT22;4320;51.498;6.556;2022-08-25T07:35:51;27.80;1.00
8565;DHT22;4320;51.498;6.556;2022-08-25T07:38:18;27.70;1.00
8565;DHT22;4320;51.498;6.556;2022-08-25T07:40:44;27.70;1.00
8565;DHT22;4320;51.498;6.556;2022-08-25T07:43:09;28.20;1.00
8565;DHT22;4320;51.498;6.556;2022-08-25T07:45:37;28.40;1.00
8565;DHT22;4320;51.498;6.556;2022-08-25T07:48:10;28.40;1.00
8565;DHT22;4320;51.498;6.556;2022-08-25T07:50:38;28.30;1.00
8565;DHT22;4320;51.498;6.556;2022-08-25T07:53:06;28.20;1.00
8565;DHT22;4320;51.498;6.556;2022-08-25T07:55:32;28.10;1.00
8565;DHT22;4320;51.498;6.556;2022-08-25T07:58:02;28.10;1.00
8565;DHT22;4320;51.498;6.556;2022-08-25T08:00:28;28.20;1.00
8565;DHT22;4320;51.498;6.556;2022-08-25T08:02:55;28.10;1.00
8565;DHT22;4320;51.498;6.556;2022-08-25T08:05:22;28.00;1.00
8565;DHT22;4320;51.498;6.556;2022-08-25T08:07:47;27.90;1.00
8565;DHT22;4320;51.498;6.556;2022-08-25T08:10:14;27.80;1.00
8565;DHT22;4320;51.498;6.556;2022-08-25T08:12:40;27.80;1.00
8565;DHT22;4320;51.498;6.556;2022-08-25T08:15:07;27.80;1.00
8565;DHT22;4320;51.498;6.556;2022-08-25T08:17:33;27.80;1.00
8565;DHT22;4320;51.498;6.556;2022-08-25T08:19:59;27.90;1.00
8565;DHT22;4320;51.498;6.556;2022-08-25T08:22:25;28.10;1.00
8565;DHT22;4320;51.498;6.556;2022-08-25T08:24:51;28.00;1.00
8565;DHT22;4320;51.498;6.556;2022-08-25T08:27:17;27.90;1.00
8565;DHT22;4320;51.498;6.556;2022-08-25T08:29:42;27.80;1.00
8565;DHT22;4320;51.498;6.556;2022-08-25T08:32:10;27.80;1.00
8565;DHT22;4320;51.498;6.556;2022-08-25T08:34:38;27.80;1.00
8565;DHT22;4320;51.498;6.556;2022-08-25T08:37:05;27.80;1.00
8565;DHT22;4320;51.498;6.556;2022-08-25T08:39:31;27.80;1.00
8565;DHT22;4320;51.498;6.556;2022-08-25T08:55:30;28.20;1.00
8565;DHT22;4320;51.498;6.556;2022-08-25T08:57:58;28.30;1.00
8565;DHT22;4320;51.498;6.556;2022-08-25T09:00:25;28.40;1.00
8565;DHT22;4320;51.498;6.556;2022-08-25T09:03:04;28.60;1.00
8565;DHT22;4320;51.498;6.556;2022-08-25T09:05:46;28.70;1.00
8565;DHT22;4320;51.498;6.556;2022-08-25T09:08:13;28.70;1.00
8565;DHT22;4320;51.498;6.556;2022-08-25T09:13:44;28.70;1.00
8565;DHT22;4320;51.498;6.556;2022-08-25T09:19:36;28.70;1.00
8565;DHT22;4320;51.498;6.556;2022-08-25T09:28:21;28.70;1.00
8565;DHT22;4320;51.498;6.556;2022-08-25T09:33:23;28.80;1.00
8565;DHT22;4320;51.498;6.556;2022-08-25T09:35:51;28.90;1.00
8565;DHT22;4320;51.498;6.556;2022-08-25T09:38:17;29.00;1.00
8565;DHT22;4320;51.498;6.556;2022-08-25T09:40:46;29.10;1.00
8565;DHT22;4320;51.498;6.556;2022-08-25T09:48:45;29.20;1.00
8565;DHT22;4320;51.498;6.556;2022-08-25T09:51:30;29.20;1.00
8565;DHT22;4320;51.498;6.556;2022-08-25T09:54:02;29.30;1.00
8565;DHT22;4320;51.498;6.556;2022-08-25T09:56:31;29.40;1.00
8565;DHT22;4320;51.498;6.556;2022-08-25T10:01:49;29.50;1.00
8565;DHT22;4320;51.498;6.556;2022-08-25T10:04:28;29.50;1.00
8565;DHT22;4320;51.498;6.556;2022-08-25T10:06:54;29.60;1.00
8565;DHT22;4320;51.498;6.556;2022-08-25T10:09:40;29.60;1.00
8565;DHT22;4320;51.498;6.556;2022-08-25T10:12:37;29.60;1.00
8565;DHT22;4320;51.498;6.556;2022-08-25T10:17:51;29.70;1.00
8565;DHT22;4320;51.498;6.556;2022-08-25T10:20:23;29.70;1.00
8565;DHT22;4320;51.498;6.556;2022-08-25T10:22:50;29.80;1.00
8565;DHT22;4320;51.498;6.556;2022-08-25T10:25:34;29.90;1.00
8565;DHT22;4320;51.498;6.556;2022-08-25T10:31:18;30.00;1.00
8565;DHT22;4320;51.498;6.556;2022-08-25T10:42:28;30.20;1.00
8565;DHT22;4320;51.498;6.556;2022-08-25T10:56:49;30.20;1.00
8565;DHT22;4320;51.498;6.556;2022-08-25T11:04:36;30.20;1.00
8565;DHT22;4320;51.498;6.556;2022-08-25T11:07:08;30.40;1.00
8565;DHT22;4320;51.498;6.556;2022-08-25T11:09:40;30.40;1.00
8565;DHT22;4320;51.498;6.556;2022-08-25T11:12:43;30.50;1.00
8565;DHT22;4320;51.498;6.556;2022-08-25T11:15:32;30.50;1.00
8565;DHT22;4320;51.498;6.556;2022-08-25T11:18:04;30.60;1.00
8565;DHT22;4320;51.498;6.556;2022-08-25T11:30:31;30.50;1.00
8565;DHT22;4320;51.498;6.556;2022-08-25T11:32:57;30.40;1.00
8565;DHT22;4320;51.498;6.556;2022-08-25T11:35:45;30.40;1.00
8565;DHT22;4320;51.498;6.556;2022-08-25T11:38:18;30.50;1.00
8565;DHT22;4320;51.498;6.556;2022-08-25T11:43:51;30.50;1.00
8565;DHT22;4320;51.498;6.556;2022-08-25T11:46:42;30.50;1.00
8565;DHT22;4320;51.498;6.556;2022-08-25T11:51:57;30.60;1.00
8565;DHT22;4320;51.498;6.556;2022-08-25T11:57:05;30.80;1.00
8565;DHT22;4320;51.498;6.556;2022-08-25T12:02:37;31.00;1.00
8565;DHT22;4320;51.498;6.556;2022-08-25T12:13:46;31.60;1.00
8565;DHT22;4320;51.498;6.556;2022-08-25T12:27:11;32.10;1.00
8565;DHT22;4320;51.498;6.556;2022-08-25T12:35:29;32.50;1.00
8565;DHT22;4320;51.498;6.556;2022-08-25T12:40:30;33.20;1.00
8565;DHT22;4320;51.498;6.556;2022-08-25T12:43:06;33.50;1.00
8565;DHT22;4320;51.498;6.556;2022-08-25T12:45:38;33.90;1.00
8565;DHT22;4320;51.498;6.556;2022-08-25T12:51:16;34.30;1.00
8565;DHT22;4320;51.498;6.556;2022-08-25T12:53:56;34.20;1.00
8565;DHT22;4320;51.498;6.556;2022-08-25T12:56:31;34.40;1.00
8565;DHT22;4320;51.498;6.556;2022-08-25T13:04:14;34.60;1.00
8565;DHT22;4320;51.498;6.556;2022-08-25T13:15:42;34.50;1.00
8565;DHT22;4320;51.498;6.556;2022-08-25T13:18:26;34.70;1.00
8565;DHT22;4320;51.498;6.556;2022-08-25T13:21:02;35.00;1.00
8565;DHT22;4320;51.498;6.556;2022-08-25T13:23:29;35.20;1.00
8565;DHT22;4320;51.498;6.556;2022-08-25T13:25:56;35.20;1.00
8565;DHT22;4320;51.498;6.556;2022-08-25T13:28:34;35.30;1.00
8565;DHT22;4320;51.498;6.556;2022-08-25T13:31:13;35.40;1.00
8565;DHT22;4320;51.498;6.556;2022-08-25T13:33:56;35.50;1.00
8565;DHT22;4320;51.498;6.556;2022-08-25T13:36:26;35.40;1.00
8565;DHT22;4320;51.498;6.556;2022-08-25T13:39:18;35.20;1.00
8565;DHT22;4320;51.498;6.556;2022-08-25T13:41:47;35.10;1.00
8565;DHT22;4320;51.498;6.556;2022-08-25T13:44:14;35.20;1.00
8565;DHT22;4320;51.498;6.556;2022-08-25T13:46:40;35.20;1.00
8565;DHT22;4320;51.498;6.556;2022-08-25T13:49:08;35.20;1.00
8565;DHT22;4320;51.498;6.556;2022-08-25T13:51:35;35.20;1.00
8565;DHT22;4320;51.498;6.556;2022-08-25T13:54:08;34.90;1.00
8565;DHT22;4320;51.498;6.556;2022-08-25T13:56:37;34.90;1.00
8565;DHT22;4320;51.498;6.556;2022-08-25T13:59:05;34.90;1.00
8565;DHT22;4320;51.498;6.556;2022-08-25T14:01:44;34.90;1.00
8565;DHT22;4320;51.498;6.556;2022-08-25T14:04:45;34.60;1.00
8565;DHT22;4320;51.498;6.556;2022-08-25T14:09:59;34.30;1.00
8565;DHT22;4320;51.498;6.556;2022-08-25T14:12:31;34.10;1.00
8565;DHT22;4320;51.498;6.556;2022-08-25T14:15:10;34.10;1.00
8565;DHT22;4320;51.498;6.556;2022-08-25T14:17:37;34.00;1.00
8565;DHT22;4320;51.498;6.556;2022-08-25T14:20:06;33.90;1.00
8565;DHT22;4320;51.498;6.556;2022-08-25T14:22:39;33.80;1.00
8565;DHT22;4320;51.498;6.556;2022-08-25T14:25:05;33.80;1.00
8565;DHT22;4320;51.498;6.556;2022-08-25T14:27:31;33.70;1.00
8565;DHT22;4320;51.498;6.556;2022-08-25T14:29:56;33.60;1.00
8565;DHT22;4320;51.498;6.556;2022-08-25T14:32:22;33.50;1.00
8565;DHT22;4320;51.498;6.556;2022-08-25T14:34:48;33.50;1.00
8565;DHT22;4320;51.498;6.556;2022-08-25T14:37:18;33.50;1.00
8565;DHT22;4320;51.498;6.556;2022-08-25T14:39:44;33.50;1.00
8565;DHT22;4320;51.498;6.556;2022-08-25T14:42:11;33.60;1.00
8565;DHT22;4320;51.498;6.556;2022-08-25T14:44:38;33.60;1.00
8565;DHT22;4320;51.498;6.556;2022-08-25T14:47:04;33.50;1.00
8565;DHT22;4320;51.498;6.556;2022-08-25T14:49:35;33.40;1.00
8565;DHT22;4320;51.498;6.556;2022-08-25T14:52:28;33.30;1.00
8565;DHT22;4320;51.498;6.556;2022-08-25T14:54:55;33.30;1.00
8565;DHT22;4320;51.498;6.556;2022-08-25T14:57:24;33.30;1.00
8565;DHT22;4320;51.498;6.556;2022-08-25T14:59:51;33.30;1.00
8565;DHT22;4320;51.498;6.556;2022-08-25T15:02:19;33.30;1.00
8565;DHT22;4320;51.498;6.556;2022-08-25T15:04:54;33.20;1.00
8565;DHT22;4320;51.498;6.556;2022-08-25T15:07:21;33.10;1.00
8565;DHT22;4320;51.498;6.556;2022-08-25T15:10:06;33.20;1.00
8565;DHT22;4320;51.498;6.556;2022-08-25T15:12:32;33.20;1.00
8565;DHT22;4320;51.498;6.556;2022-08-25T15:14:58;33.20;1.00
8565;DHT22;4320;51.498;6.556;2022-08-25T15:17:24;33.20;1.00
8565;DHT22;4320;51.498;6.556;2022-08-25T15:19:50;33.10;1.00
8565;DHT22;4320;51.498;6.556;2022-08-25T15:22:16;33.10;1.00
8565;DHT22;4320;51.498;6.556;2022-08-25T15:24:41;33.10;1.00
8565;DHT22;4320;51.498;6.556;2022-08-25T15:27:07;33.10;1.00
8565;DHT22;4320;51.498;6.556;2022-08-25T15:29:34;33.10;1.00
8565;DHT22;4320;51.498;6.556;2022-08-25T15:32:02;33.10;1.00
8565;DHT22;4320;51.498;6.556;2022-08-25T15:34:29;33.10;1.00
8565;DHT22;4320;51.498;6.556;2022-08-25T15:36:59;33.10;1.00
8565;DHT22;4320;51.498;6.556;2022-08-25T15:39:30;33.10;1.00
8565;DHT22;4320;51.498;6.556;2022-08-25T15:41:55;33.00;1.00
8565;DHT22;4320;51.498;6.556;2022-08-25T15:44:21;33.00;1.00
8565;DHT22;4320;51.498;6.556;2022-08-25T15:46:47;32.90;1.00
8565;DHT22;4320;51.498;6.556;2022-08-25T15:49:13;33.00;1.00
8565;DHT22;4320;51.498;6.556;2022-08-25T15:51:38;32.90;1.00
8565;DHT22;4320;51.498;6.556;2022-08-25T15:54:05;32.80;1.00
8565;DHT22;4320;51.498;6.556;2022-08-25T15:56:30;32.90;1.00
8565;DHT22;4320;51.498;6.556;2022-08-25T15:58:56;32.80;1.00
8565;DHT22;4320;51.498;6.556;2022-08-25T16:01:25;32.80;1.00
8565;DHT22;4320;51.498;6.556;2022-08-25T16:03:51;32.90;1.00
8565;DHT22;4320;51.498;6.556;2022-08-25T16:06:17;32.90;1.00
8565;DHT22;4320;51.498;6.556;2022-08-25T16:08:43;32.90;1.00
8565;DHT22;4320;51.498;6.556;2022-08-25T16:11:30;32.90;1.00
8565;DHT22;4320;51.498;6.556;2022-08-25T16:13:56;32.80;1.00
8565;DHT22;4320;51.498;6.556;2022-08-25T16:16:25;32.80;1.00
8565;DHT22;4320;51.498;6.556;2022-08-25T16:18:51;32.80;1.00
8565;DHT22;4320;51.498;6.556;2022-08-25T16:21:19;32.80;1.00
8565;DHT22;4320;51.498;6.556;2022-08-25T16:23:47;32.80;1.00
8565;DHT22;4320;51.498;6.556;2022-08-25T16:26:14;32.60;1.00
8565;DHT22;4320;51.498;6.556;2022-08-25T16:28:41;32.60;1.00
8565;DHT22;4320;51.498;6.556;2022-08-25T16:31:09;32.60;1.00
8565;DHT22;4320;51.498;6.556;2022-08-25T16:33:35;32.60;1.00
8565;DHT22;4320;51.498;6.556;2022-08-25T16:36:24;32.60;1.00
8565;DHT22;4320;51.498;6.556;2022-08-25T16:38:51;32.60;1.00
8565;DHT22;4320;51.498;6.556;2022-08-25T16:41:23;32.60;1.00
8565;DHT22;4320;51.498;6.556;2022-08-25T16:43:50;32.60;1.00
8565;DHT22;4320;51.498;6.556;2022-08-25T16:46:18;32.50;1.00
8565;DHT22;4320;51.498;6.556;2022-08-25T16:48:45;32.50;1.00
8565;DHT22;4320;51.498;6.556;2022-08-25T16:51:14;32.50;1.00
8565;DHT22;4320;51.498;6.556;2022-08-25T16:53:40;32.60;1.00
8565;DHT22;4320;51.498;6.556;2022-08-25T16:56:25;32.60;1.00
8565;DHT22;4320;51.498;6.556;2022-08-25T16:58:57;32.60;1.00
8565;DHT22;4320;51.498;6.556;2022-08-25T17:01:24;32.60;1.00
8565;DHT22;4320;51.498;6.556;2022-08-25T17:03:51;32.60;1.00
8565;DHT22;4320;51.498;6.556;2022-08-25T17:06:18;32.60;1.00
8565;DHT22;4320;51.498;6.556;2022-08-25T17:08:44;32.50;1.00
8565;DHT22;4320;51.498;6.556;2022-08-25T17:11:22;32.60;1.00
8565;DHT22;4320;51.498;6.556;2022-08-25T17:13:50;32.50;1.00
8565;DHT22;4320;51.498;6.556;2022-08-25T17:16:18;32.50;1.00
8565;DHT22;4320;51.498;6.556;2022-08-25T17:18:45;32.40;1.00
8565;DHT22;4320;51.498;6.556;2022-08-25T17:21:13;32.40;1.00
8565;DHT22;4320;51.498;6.556;2022-08-25T17:23:40;32.40;1.00
8565;DHT22;4320;51.498;6.556;2022-08-25T17:26:09;32.40;1.00
8565;DHT22;4320;51.498;6.556;2022-08-25T17:28:35;32.30;1.00
8565;DHT22;4320;51.498;6.556;2022-08-25T17:31:01;32.20;1.00
8565;DHT22;4320;51.498;6.556;2022-08-25T17:33:26;32.20;1.00
8565;DHT22;4320;51.498;6.556;2022-08-25T17:35:54;32.10;1.00
8565;DHT22;4320;51.498;6.556;2022-08-25T17:38:21;32.10;1.00
8565;DHT22;4320;51.498;6.556;2022-08-25T17:40:56;32.00;1.00
8565;DHT22;4320;51.498;6.556;2022-08-25T17:43:23;31.90;1.00
8565;DHT22;4320;51.498;6.556;2022-08-25T17:45:50;31.90;1.00
8565;DHT22;4320;51.498;6.556;2022-08-25T17:48:17;31.90;1.00
8565;DHT22;4320;51.498;6.556;2022-08-25T17:50:42;31.90;1.00
8565;DHT22;4320;51.498;6.556;2022-08-25T17:53:09;31.70;1.00
8565;DHT22;4320;51.498;6.556;2022-08-25T17:55:36;31.70;1.00
8565;DHT22;4320;51.498;6.556;2022-08-25T17:58:03;31.60;1.00
8565;DHT22;4320;51.498;6.556;2022-08-25T18:00:29;31.60;1.00
8565;DHT22;4320;51.498;6.556;2022-08-25T18:02:55;31.70;1.00
8565;DHT22;4320;51.498;6.556;2022-08-25T18:05:22;31.60;1.00
8565;DHT22;4320;51.498;6.556;2022-08-25T18:07:48;31.60;1.00
8565;DHT22;4320;51.498;6.556;2022-08-25T18:10:14;31.50;1.00
8565;DHT22;4320;51.498;6.556;2022-08-25T18:12:40;31.40;1.00
8565;DHT22;4320;51.498;6.556;2022-08-25T18:15:07;31.30;1.00
8565;DHT22;4320;51.498;6.556;2022-08-25T18:17:34;31.30;1.00
8565;DHT22;4320;51.498;6.556;2022-08-25T18:20:01;31.20;1.00
8565;DHT22;4320;51.498;6.556;2022-08-25T18:22:27;31.20;1.00
8565;DHT22;4320;51.498;6.556;2022-08-25T18:24:53;31.20;1.00
8565;DHT22;4320;51.498;6.556;2022-08-25T18:27:18;31.10;1.00
8565;DHT22;4320;51.498;6.556;2022-08-25T18:29:44;31.10;1.00
8565;DHT22;4320;51.498;6.556;2022-08-25T18:32:10;31.10;1.00
8565;DHT22;4320;51.498;6.556;2022-08-25T18:34:36;31.00;1.00
8565;DHT22;4320;51.498;6.556;2022-08-25T18:37:03;31.00;1.00
8565;DHT22;4320;51.498;6.556;2022-08-25T18:39:48;30.90;1.00
8565;DHT22;4320;51.498;6.556;2022-08-25T18:42:32;30.80;1.00
8565;DHT22;4320;51.498;6.556;2022-08-25T18:45:00;30.80;1.00
8565;DHT22;4320;51.498;6.556;2022-08-25T18:47:26;30.70;1.00
8565;DHT22;4320;51.498;6.556;2022-08-25T18:49:51;30.70;1.00